Time;durP1;ratioP1;P1;durP2;ratioP2;P2;SDS_P1;SDS_P2;PMS_P1;PMS_P2;Temp;Humidity;BMP_temperature;BMP_pressure;BME280_temperature;BME280_humidity;BME280_pressure;Samples;Min_cycle;Max_cycle;Signal;HPM_P1;HPM_P2
2022/08/27 00:01:03;;;;;;;10.00;8.30;;;19.70;99.90;;;;;;6284638;28;20574;-66
2022/08/27 00:04:14;;;;;;;9.23;8.10;;;19.70;99.90;;;;;;6285976;28;20295;-66
2022/08/27 00:07:20;;;;;;;16.40;8.60;;;19.70;99.90;;;;;;6289036;28;20271;-66
2022/08/27 00:10:28;;;;;;;13.45;9.10;;;19.70;99.90;;;;;;6288803;28;20574;-66
2022/08/27 00:13:35;;;;;;;16.70;9.15;;;19.70;99.90;;;;;;6257263;28;20308;-66
2022/08/27 00:16:40;;;;;;;11.20;9.02;;;19.70;99.90;;;;;;6264409;28;20276;-66
2022/08/27 00:19:46;;;;;;;12.70;8.20;;;19.70;99.90;;;;;;6263691;28;20427;-66
2022/08/27 00:22:51;;;;;;;17.27;8.27;;;19.70;99.90;;;;;;6264453;28;20292;-66
2022/08/27 00:25:57;;;;;;;17.70;8.38;;;19.70;99.90;;;;;;6263818;28;20300;-66
2022/08/27 00:29:05;;;;;;;20.75;9.52;;;19.70;99.90;;;;;;6263448;28;20451;-66
2022/08/27 00:32:12;;;;;;;16.60;8.68;;;19.80;99.90;;;;;;6264547;28;20276;-66
2022/08/27 00:35:18;;;;;;;16.90;8.48;;;19.80;99.90;;;;;;6263759;28;20295;-66
2022/08/27 00:38:24;;;;;;;12.05;8.98;;;19.80;99.90;;;;;;6263531;28;20271;-67
2022/08/27 00:41:30;;;;;;;16.77;8.90;;;19.80;99.90;;;;;;6264088;28;20267;-66
2022/08/27 00:44:37;;;;;;;16.60;9.63;;;19.80;99.90;;;;;;6263188;28;20304;-66
2022/08/27 00:47:49;;;;;;;15.20;8.88;;;19.90;99.90;;;;;;6263989;28;20268;-66
2022/08/27 00:50:55;;;;;;;14.70;8.85;;;19.90;99.90;;;;;;6263520;28;20296;-68
2022/08/27 00:54:01;;;;;;;17.33;9.07;;;19.90;99.90;;;;;;6263063;28;20299;-67
2022/08/27 00:57:07;;;;;;;23.92;8.45;;;19.90;99.90;;;;;;6263262;28;20275;-67
2022/08/27 01:00:19;;;;;;;14.32;8.23;;;19.90;99.90;;;;;;6262885;28;20301;-67
2022/08/27 01:03:25;;;;;;;12.68;8.05;;;19.90;99.90;;;;;;6274073;28;20303;-67
2022/08/27 01:06:35;;;;;;;13.20;8.93;;;19.90;99.90;;;;;;6288048;28;20347;-67
2022/08/27 01:09:43;;;;;;;13.50;8.32;;;19.90;99.90;;;;;;6287705;28;20299;-67
2022/08/27 01:12:49;;;;;;;14.10;8.98;;;19.80;99.90;;;;;;6306986;28;20279;-66
2022/08/27 01:15:59;;;;;;;10.93;8.88;;;19.80;99.90;;;;;;6311377;28;20294;-67
2022/08/27 01:19:09;;;;;;;13.95;8.82;;;19.80;99.90;;;;;;6312186;28;20294;-67
2022/08/27 01:22:26;;;;;;;12.02;9.00;;;19.80;99.90;;;;;;6312713;28;20271;-67
2022/08/27 01:25:32;;;;;;;14.77;8.73;;;19.80;99.90;;;;;;6312280;28;20594;-67
2022/08/27 01:28:39;;;;;;;11.23;8.15;;;19.80;99.90;;;;;;6311963;28;20298;-67
2022/08/27 01:31:45;;;;;;;14.55;8.50;;;19.80;99.90;;;;;;6312773;28;20578;-67
2022/08/27 01:34:51;;;;;;;9.80;8.15;;;19.80;99.90;;;;;;6311889;28;20318;-67
2022/08/27 01:37:56;;;;;;;9.90;7.97;;;19.80;99.90;;;;;;6312337;28;20267;-67
2022/08/27 01:41:03;;;;;;;14.50;9.02;;;19.90;99.90;;;;;;6311439;28;20294;-67
2022/08/27 01:44:11;;;;;;;9.65;8.18;;;19.80;99.90;;;;;;6311604;28;20298;-67
2022/08/27 01:47:20;;;;;;;11.50;8.90;;;19.90;99.90;;;;;;6312006;28;20291;-67
2022/08/27 01:50:29;;;;;;;9.93;8.88;;;19.90;99.90;;;;;;6311797;28;20318;-67
2022/08/27 01:53:34;;;;;;;17.85;9.02;;;19.90;99.90;;;;;;6311675;28;20298;-67
2022/08/27 01:56:41;;;;;;;18.48;9.18;;;19.90;99.90;;;;;;6311978;28;20270;-67
2022/08/27 01:59:48;;;;;;;14.98;8.50;;;19.90;99.90;;;;;;6311490;28;20299;-67
2022/08/27 02:02:53;;;;;;;17.48;9.10;;;19.90;99.90;;;;;;6311068;28;20294;-67
2022/08/27 02:05:59;;;;;;;12.70;8.55;;;20.00;99.90;;;;;;6311242;28;20290;-67
2022/08/27 02:09:05;;;;;;;14.20;9.18;;;20.00;99.90;;;;;;6310989;28;20294;-67
2022/08/27 02:12:14;;;;;;;10.00;9.02;;;20.00;99.90;;;;;;6311580;28;20419;-67
2022/08/27 02:15:20;;;;;;;9.75;8.27;;;20.00;99.90;;;;;;6311103;28;20297;-66
2022/08/27 02:18:26;;;;;;;11.18;8.98;;;20.00;99.90;;;;;;6310287;28;20266;-67
2022/08/27 02:21:31;;;;;;;15.32;8.68;;;20.00;99.90;;;;;;6310946;28;20406;-66
2022/08/27 02:24:37;;;;;;;12.85;8.43;;;20.00;99.90;;;;;;6310807;28;20298;-66
2022/08/27 02:27:44;;;;;;;12.80;8.68;;;20.00;99.90;;;;;;6310891;28;20278;-67
2022/08/27 02:30:49;;;;;;;13.88;9.20;;;20.00;99.90;;;;;;6310366;28;20393;-66
2022/08/27 02:33:55;;;;;;;16.10;9.02;;;20.00;99.90;;;;;;6310155;28;20298;-67
2022/08/27 02:37:01;;;;;;;10.93;8.48;;;20.10;99.90;;;;;;6311114;28;20275;-66
2022/08/27 02:40:09;;;;;;;13.90;9.27;;;20.10;99.90;;;;;;6310518;28;20477;-66
2022/08/27 02:43:17;;;;;;;16.48;8.85;;;20.10;99.90;;;;;;6310171;28;20275;-67
2022/08/27 02:46:30;;;;;;;14.45;8.73;;;20.10;99.90;;;;;;6310819;28;20270;-66
2022/08/27 02:49:35;;;;;;;13.05;9.32;;;20.10;99.90;;;;;;6310333;28;20299;-67
2022/08/27 02:52:41;;;;;;;12.80;8.82;;;20.20;99.90;;;;;;6310565;28;20270;-66
2022/08/27 02:55:50;;;;;;;16.17;9.13;;;20.20;99.90;;;;;;6310089;28;20301;-66
2022/08/27 02:58:58;;;;;;;11.43;9.32;;;20.10;99.90;;;;;;6310183;28;20294;-67
2022/08/27 03:02:04;;;;;;;14.07;9.75;;;20.10;99.90;;;;;;6310674;28;20270;-66
2022/08/27 03:05:12;;;;;;;18.42;9.40;;;20.10;99.90;;;;;;6308232;28;20294;-66
2022/08/27 03:08:18;;;;;;;12.52;9.80;;;20.00;99.90;;;;;;6309479;28;20263;-66
2022/08/27 03:11:24;;;;;;;12.63;8.90;;;20.10;99.90;;;;;;6310010;28;20267;-67
2022/08/27 03:14:31;;;;;;;13.05;8.93;;;20.10;99.90;;;;;;6309936;28;20306;-67
2022/08/27 03:21:01;;;;;;;16.90;9.60;;;20.20;99.90;;;;;;6309749;28;20290;-66
2022/08/27 03:24:08;;;;;;;13.23;9.43;;;20.20;99.90;;;;;;6309702;28;20314;-66
2022/08/27 03:27:19;;;;;;;12.95;8.98;;;20.10;99.90;;;;;;6309838;28;20266;-67
2022/08/27 03:30:26;;;;;;;12.95;9.23;;;20.20;99.90;;;;;;6309647;28;20298;-66
2022/08/27 03:33:35;;;;;;;14.65;9.30;;;20.20;99.90;;;;;;6309561;28;20413;-67
2022/08/27 03:36:40;;;;;;;14.82;9.07;;;20.20;99.90;;;;;;6309770;28;20271;-67
2022/08/27 03:39:46;;;;;;;14.55;8.95;;;20.20;99.90;;;;;;6311672;28;20299;-66
2022/08/27 03:42:51;;;;;;;14.07;9.77;;;20.20;99.90;;;;;;6314845;28;20267;-66
2022/08/27 03:45:58;;;;;;;14.75;9.02;;;20.20;99.90;;;;;;6313720;28;20298;-67
2022/08/27 03:49:06;;;;;;;13.35;8.90;;;20.20;99.90;;;;;;6314219;28;20298;-66
2022/08/27 03:52:13;;;;;;;17.63;9.38;;;20.20;99.90;;;;;;6314470;28;20266;-66
2022/08/27 03:55:18;;;;;;;15.68;9.50;;;20.20;99.90;;;;;;6314178;28;20491;-67
2022/08/27 03:58:24;;;;;;;15.73;9.63;;;20.20;99.90;;;;;;6329243;28;20484;-67
2022/08/27 04:01:30;;;;;;;14.48;9.35;;;20.20;99.90;;;;;;6314430;28;20271;-67
2022/08/27 04:04:36;;;;;;;12.38;8.75;;;20.20;99.90;;;;;;6313548;28;20294;-67
2022/08/27 04:07:44;;;;;;;16.25;8.93;;;20.30;99.90;;;;;;6314594;28;20287;-67
2022/08/27 04:10:50;;;;;;;12.65;9.90;;;20.30;99.90;;;;;;6313910;28;20437;-66
2022/08/27 04:13:56;;;;;;;13.65;9.73;;;20.30;99.90;;;;;;6313796;28;20294;-66
2022/08/27 04:17:03;;;;;;;16.33;9.23;;;20.20;99.90;;;;;;6314473;28;20278;-67
2022/08/27 04:20:10;;;;;;;11.75;9.27;;;20.20;99.90;;;;;;6313595;28;20294;-67
2022/08/27 04:23:36;;;;;;;11.00;9.35;;;20.20;99.90;;;;;;6313734;28;20327;-66
2022/08/27 04:26:44;;;;;;;12.85;9.40;;;20.30;99.90;;;;;;6313980;28;20290;-66
2022/08/27 04:29:50;;;;;;;19.48;9.10;;;20.30;99.90;;;;;;6313592;28;20299;-66
2022/08/27 04:32:58;;;;;;;12.43;9.52;;;20.30;99.90;;;;;;6313827;28;20270;-66
2022/08/27 04:36:08;;;;;;;12.45;9.00;;;20.40;99.90;;;;;;6312778;28;20597;-66
2022/08/27 04:39:14;;;;;;;12.55;9.60;;;20.30;99.90;;;;;;6312991;28;20302;-66
2022/08/27 04:42:20;;;;;;;12.88;9.55;;;20.30;99.90;;;;;;6313917;28;20271;-67
2022/08/27 04:45:25;;;;;;;13.90;9.20;;;20.40;99.90;;;;;;6313140;28;20311;-67
2022/08/27 04:48:33;;;;;;;10.65;9.18;;;20.30;99.90;;;;;;6313148;28;20322;-66
2022/08/27 04:51:43;;;;;;;14.20;10.18;;;20.40;99.90;;;;;;6313290;28;20278;-67
2022/08/27 04:54:50;;;;;;;14.40;9.45;;;20.40;99.90;;;;;;6312653;28;20298;-66
2022/08/27 04:57:55;;;;;;;12.27;10.10;;;20.40;99.90;;;;;;6313177;28;20271;-66
2022/08/27 05:01:00;;;;;;;15.85;10.35;;;20.40;99.90;;;;;;6312666;28;20294;-67
2022/08/27 05:04:08;;;;;;;16.05;9.77;;;20.40;99.90;;;;;;6296433;28;20586;-67
2022/08/27 05:07:13;;;;;;;12.65;9.35;;;20.50;99.90;;;;;;6288302;28;20295;-67
2022/08/27 05:10:19;;;;;;;11.38;10.07;;;20.50;99.90;;;;;;6287134;28;20294;-66
2022/08/27 05:13:24;;;;;;;13.35;9.70;;;20.50;99.90;;;;;;6281252;28;20267;-66
2022/08/27 05:16:30;;;;;;;11.85;9.63;;;20.60;99.90;;;;;;6286998;28;20275;-66
2022/08/27 05:19:37;;;;;;;12.60;9.50;;;20.60;99.90;;;;;;6287200;28;20294;-66
2022/08/27 05:22:43;;;;;;;11.93;10.05;;;20.70;99.90;;;;;;6287282;28;20567;-66
2022/08/27 05:25:52;;;;;;;15.80;11.02;;;20.70;99.90;;;;;;6286535;28;20300;-66
2022/08/27 05:28:59;;;;;;;16.98;10.48;;;20.70;99.90;;;;;;6287136;28;20295;-66
2022/08/27 05:32:05;;;;;;;17.73;10.25;;;20.80;99.90;;;;;;6286832;28;20431;-66
2022/08/27 05:35:12;;;;;;;19.25;10.10;;;20.80;99.90;;;;;;6286940;28;20296;-66
2022/08/27 05:38:21;;;;;;;16.75;10.32;;;20.90;99.90;;;;;;6286540;28;20295;-66
2022/08/27 05:41:29;;;;;;;11.50;10.20;;;20.90;99.90;;;;;;6286927;28;20550;-67
2022/08/27 05:44:39;;;;;;;15.05;10.15;;;20.90;99.90;;;;;;6286360;28;20294;-67
2022/08/27 05:47:45;;;;;;;15.25;10.63;;;20.90;99.90;;;;;;6286725;28;20295;-67
2022/08/27 05:50:52;;;;;;;19.05;10.27;;;20.90;99.90;;;;;;6286251;28;20291;-66
2022/08/27 05:54:00;;;;;;;17.13;10.20;;;21.00;99.90;;;;;;6286072;28;20294;-66
2022/08/27 05:57:11;;;;;;;18.00;10.70;;;21.00;99.90;;;;;;6286600;28;20279;-66
2022/08/27 06:03:40;;;;;;;19.80;10.27;;;21.10;99.90;;;;;;6284921;28;20295;-67
2022/08/27 06:06:48;;;;;;;16.70;10.18;;;21.10;99.90;;;;;;6286281;28;20294;-66
2022/08/27 06:09:53;;;;;;;16.70;9.98;;;21.10;99.90;;;;;;6285790;28;20478;-67
2022/08/27 06:12:59;;;;;;;21.20;9.68;;;21.20;99.90;;;;;;6280253;28;20542;-67
2022/08/27 06:16:07;;;;;;;22.50;10.27;;;21.30;99.90;;;;;;6285623;28;20295;-67
2022/08/27 06:19:13;;;;;;;17.20;10.05;;;21.20;99.90;;;;;;6285460;28;20302;-67
2022/08/27 06:22:20;;;;;;;20.10;10.38;;;21.30;99.90;;;;;;6285783;28;20439;-67
2022/08/27 06:25:25;;;;;;;15.75;10.27;;;21.40;99.90;;;;;;6285766;28;20290;-67
2022/08/27 06:28:31;;;;;;;13.95;9.50;;;21.40;99.90;;;;;;6285282;28;20295;-68
2022/08/27 06:31:37;;;;;;;15.85;10.80;;;21.40;99.90;;;;;;6285455;28;20271;-67
2022/08/27 06:34:44;;;;;;;22.67;9.55;;;21.60;99.90;;;;;;6285208;28;20300;-68
2022/08/27 06:37:51;;;;;;;15.68;10.68;;;21.60;99.90;;;;;;6285823;28;20283;-67
2022/08/27 06:40:57;;;;;;;15.05;9.75;;;21.70;99.90;;;;;;6284658;28;20295;-67
2022/08/27 06:44:03;;;;;;;19.10;10.02;;;21.80;99.90;;;;;;6285113;28;20311;-67
2022/08/27 06:47:10;;;;;;;14.50;9.32;;;21.80;99.90;;;;;;6285137;28;20486;-65
2022/08/27 06:50:16;;;;;;;18.13;9.55;;;21.90;99.90;;;;;;6284594;28;20290;-66
2022/08/27 06:53:27;;;;;;;17.55;9.23;;;22.00;99.90;;;;;;6284753;28;20283;-66
2022/08/27 06:56:34;;;;;;;24.45;10.18;;;22.00;99.90;;;;;;6285016;28;20271;-66
2022/08/27 06:59:40;;;;;;;17.55;9.32;;;22.10;99.90;;;;;;6284890;28;20294;-66
2022/08/27 07:02:45;;;;;;;12.50;9.43;;;22.10;99.90;;;;;;6289297;28;20298;-67
2022/08/27 07:05:51;;;;;;;18.02;9.68;;;22.00;99.90;;;;;;6309286;28;20531;-66
2022/08/27 07:08:57;;;;;;;17.02;9.93;;;22.10;99.90;;;;;;6309373;28;20298;-66
2022/08/27 07:12:04;;;;;;;13.00;8.82;;;22.00;99.90;;;;;;6303524;28;20546;-67
2022/08/27 07:15:12;;;;;;;20.02;9.70;;;22.00;99.90;;;;;;6312502;28;20294;-66
2022/08/27 07:18:18;;;;;;;18.88;9.45;;;22.00;99.90;;;;;;6314685;28;20274;-67
2022/08/27 07:21:32;;;;;;;23.05;9.70;;;22.00;99.90;;;;;;6315103;28;20270;-67
2022/08/27 07:24:39;;;;;;;17.52;10.23;;;21.90;99.90;;;;;;6314404;28;20294;-67
2022/08/27 07:27:45;;;;;;;14.00;9.70;;;21.90;99.90;;;;;;6315027;28;20289;-67
2022/08/27 07:30:51;;;;;;;16.80;9.73;;;21.90;99.90;;;;;;6314725;28;20298;-67
2022/08/27 07:34:15;;;;;;;17.73;9.82;;;21.90;99.90;;;;;;6314246;28;20425;-66
2022/08/27 07:37:21;;;;;;;20.17;9.35;;;21.90;99.90;;;;;;6314415;28;20274;-66
2022/08/27 07:40:31;;;;;;;16.27;9.55;;;21.90;99.90;;;;;;6314130;28;20296;-66
2022/08/27 07:47:01;;;;;;;15.75;10.07;;;21.90;99.90;;;;;;6314704;28;20271;-67
2022/08/27 07:50:08;;;;;;;18.30;9.50;;;22.00;99.90;;;;;;6314385;28;20290;-67
2022/08/27 07:53:16;;;;;;;12.88;9.45;;;22.00;99.90;;;;;;6314074;28;20270;-67
2022/08/27 07:56:23;;;;;;;14.80;9.52;;;22.10;99.90;;;;;;6314476;28;20275;-67
2022/08/27 07:59:28;;;;;;;17.63;9.50;;;22.20;99.90;;;;;;6313781;28;20298;-66
2022/08/27 08:02:34;;;;;;;26.20;9.40;;;22.20;99.90;;;;;;6313745;28;20310;-67
2022/08/27 08:05:42;;;;;;;16.73;9.27;;;22.20;99.90;;;;;;6313564;28;20597;-67
2022/08/27 08:08:48;;;;;;;19.25;9.52;;;22.20;99.90;;;;;;6313033;28;20380;-67
2022/08/27 08:11:55;;;;;;;11.40;8.27;;;22.20;99.90;;;;;;6313235;28;20262;-67
2022/08/27 08:15:01;;;;;;;18.58;9.63;;;22.30;99.90;;;;;;6313347;28;20290;-67
2022/08/27 08:18:07;;;;;;;16.88;8.85;;;22.20;99.90;;;;;;6313859;28;20274;-67
2022/08/27 08:21:14;;;;;;;11.43;9.43;;;22.30;99.90;;;;;;6312641;28;20557;-67
2022/08/27 08:24:20;;;;;;;13.10;7.93;;;22.30;99.90;;;;;;6312728;28;20294;-67
2022/08/27 08:27:27;;;;;;;10.75;8.32;;;22.30;99.90;;;;;;6313369;28;20270;-66
2022/08/27 08:30:33;;;;;;;13.85;8.77;;;22.30;99.90;;;;;;6312845;28;20303;-66
2022/08/27 08:33:39;;;;;;;12.00;8.95;;;22.30;99.90;;;;;;6312735;28;20310;-66
2022/08/27 08:36:45;;;;;;;10.45;9.38;;;22.30;99.90;;;;;;6313049;28;20274;-67
2022/08/27 08:39:58;;;;;;;21.67;9.02;;;22.30;99.90;;;;;;6312642;28;20605;-66
2022/08/27 08:43:06;;;;;;;14.77;9.82;;;22.30;99.90;;;;;;6313524;28;20550;-66
2022/08/27 08:46:20;;;;;;;14.85;9.88;;;22.30;99.90;;;;;;6312359;28;20275;-66
2022/08/27 08:49:35;;;;;;;18.77;9.82;;;22.30;99.90;;;;;;6312512;28;20302;-67
2022/08/27 08:52:50;;;;;;;13.27;9.57;;;22.30;99.90;;;;;;6312826;28;20266;-66
2022/08/27 08:55:57;;;;;;;17.00;9.88;;;22.30;99.90;;;;;;6312375;28;20299;-65
2022/08/27 08:59:09;;;;;;;20.75;10.10;;;22.30;99.90;;;;;;6312178;28;20294;-66
2022/08/27 09:02:16;;;;;;;19.75;10.15;;;22.30;99.90;;;;;;6327571;28;20342;-66
2022/08/27 09:05:24;;;;;;;16.65;10.23;;;22.40;99.90;;;;;;6311884;28;20290;-65
2022/08/27 09:08:35;;;;;;;17.15;10.13;;;22.50;99.90;;;;;;6311335;28;20298;-65
2022/08/27 09:11:58;;;;;;;13.18;10.13;;;22.40;99.90;;;;;;6302510;28;20268;-66
2022/08/27 09:15:12;;;;;;;16.60;10.40;;;22.40;99.90;;;;;;6287062;28;20300;-65
2022/08/27 09:18:17;;;;;;;15.07;9.52;;;22.50;99.90;;;;;;6286664;28;20288;-66
2022/08/27 09:21:33;;;;;;;16.05;9.75;;;22.50;99.90;;;;;;6286790;28;20320;-66
2022/08/27 09:24:51;;;;;;;19.58;10.10;;;22.70;99.90;;;;;;6285560;28;20303;-66
2022/08/27 09:28:00;;;;;;;12.52;9.95;;;22.70;99.90;;;;;;6287169;28;20271;-66
2022/08/27 09:31:09;;;;;;;12.43;9.57;;;22.80;99.90;;;;;;6286545;28;20304;-67
2022/08/27 09:34:16;;;;;;;18.77;10.75;;;22.80;99.90;;;;;;6286850;28;20294;-67
2022/08/27 09:37:23;;;;;;;17.85;9.75;;;22.90;99.90;;;;;;6285999;28;20271;-67
2022/08/27 09:40:44;;;;;;;14.57;9.82;;;22.90;99.90;;;;;;6286416;28;20295;-67
2022/08/27 09:43:58;;;;;;;18.13;10.52;;;22.90;99.90;;;;;;6285957;28;20316;-67
2022/08/27 09:47:05;;;;;;;15.48;9.98;;;22.90;99.90;;;;;;6286379;28;20562;-67
2022/08/27 09:50:18;;;;;;;14.80;9.35;;;23.00;99.90;;;;;;6286598;28;20299;-67
2022/08/27 09:53:27;;;;;;;17.88;8.95;;;23.20;99.90;;;;;;6285692;28;20271;-67
2022/08/27 09:56:35;;;;;;;20.20;9.40;;;23.30;99.90;;;;;;6286698;28;20270;-67
2022/08/27 09:59:50;;;;;;;14.82;9.32;;;23.50;99.90;;;;;;6285745;28;20304;-68
2022/08/27 10:03:02;;;;;;;17.25;9.05;;;23.40;99.90;;;;;;6286629;28;20315;-67
2022/08/27 10:06:08;;;;;;;13.70;8.27;;;23.60;99.90;;;;;;6285841;28;20476;-68
2022/08/27 10:09:19;;;;;;;19.13;9.40;;;23.70;99.90;;;;;;6285559;28;20330;-67
2022/08/27 10:12:31;;;;;;;15.90;9.38;;;23.80;99.90;;;;;;6294166;28;20262;-67
2022/08/27 10:15:40;;;;;;;14.00;9.48;;;23.70;99.90;;;;;;6310306;28;20294;-69
2022/08/27 10:18:59;;;;;;;14.77;9.70;;;23.70;99.90;;;;;;6310017;28;20294;-67
2022/08/27 10:22:14;;;;;;;16.70;8.85;;;23.60;99.90;;;;;;6310949;28;20266;-67
2022/08/27 10:25:32;;;;;;;21.63;8.57;;;23.70;99.90;;;;;;6299277;28;20299;-68
2022/08/27 10:28:56;;;;;;;12.90;8.82;;;23.90;99.90;;;;;;6285897;28;20354;-68
2022/08/27 10:32:11;;;;;;;22.63;9.23;;;24.10;99.90;;;;;;6285856;28;20312;-68
2022/08/27 10:35:25;;;;;;;19.67;8.93;;;24.20;99.90;;;;;;6285423;28;20299;-67
2022/08/27 10:38:37;;;;;;;11.27;8.18;;;24.30;99.90;;;;;;6284566;28;20304;-68
2022/08/27 10:41:54;;;;;;;17.50;9.05;;;24.30;99.90;;;;;;6285162;28;20271;-67
2022/08/27 10:45:17;;;;;;;21.45;9.13;;;24.30;99.90;;;;;;6284704;28;20450;-68
2022/08/27 10:48:40;;;;;;;15.82;8.88;;;24.40;99.90;;;;;;6284448;28;20291;-67
2022/08/27 10:51:52;;;;;;;18.95;9.18;;;24.40;99.90;;;;;;6285463;28;20291;-67
2022/08/27 10:55:02;;;;;;;16.63;8.93;;;24.50;99.90;;;;;;6285119;28;20315;-68
2022/08/27 10:58:38;;;;;;;18.50;8.95;;;24.40;99.90;;;;;;6284892;28;20272;-68
2022/08/27 11:01:49;;;;;;;15.55;8.90;;;24.50;99.90;;;;;;6284849;28;20275;-67
2022/08/27 11:04:59;;;;;;;10.77;8.40;;;24.50;99.90;;;;;;6306426;28;20484;-67
2022/08/27 11:08:11;;;;;;;15.80;8.63;;;24.60;99.90;;;;;;6310004;28;20472;-67
2022/08/27 11:11:33;;;;;;;10.10;8.50;;;24.70;99.90;;;;;;6308518;28;20290;-67
2022/08/27 11:15:02;;;;;;;15.88;8.55;;;24.80;99.90;;;;;;6309486;28;20486;-67
2022/08/27 11:18:19;;;;;;;17.98;8.93;;;24.90;99.90;;;;;;6309329;28;20274;-68
2022/08/27 11:21:33;;;;;;;19.00;8.55;;;24.90;99.90;;;;;;6309875;28;20354;-66
2022/08/27 11:24:47;;;;;;;17.45;8.18;;;25.00;99.90;;;;;;6309597;28;20294;-67
2022/08/27 11:27:54;;;;;;;14.90;7.88;;;25.10;99.90;;;;;;6309529;28;20270;-66
2022/08/27 11:31:04;;;;;;;25.73;8.85;;;25.20;99.90;;;;;;6309257;28;20302;-67
2022/08/27 11:34:17;;;;;;;16.77;7.57;;;25.30;99.90;;;;;;6309242;28;20307;-66
2022/08/27 11:37:44;;;;;;;19.52;7.30;;;25.40;99.90;;;;;;6309957;28;20270;-67
2022/08/27 11:41:15;;;;;;;14.80;7.38;;;25.50;99.90;;;;;;6309580;28;20303;-67
2022/08/27 11:44:23;;;;;;;20.77;7.32;;;25.50;99.90;;;;;;6309355;28;20298;-67
2022/08/27 11:47:29;;;;;;;15.82;7.60;;;25.50;99.90;;;;;;6309856;28;20270;-67
2022/08/27 11:50:34;;;;;;;12.27;6.30;;;25.60;99.90;;;;;;6309509;28;20298;-67
2022/08/27 11:53:43;;;;;;;16.73;6.47;;;25.70;99.90;;;;;;6309257;28;20289;-66
2022/08/27 11:56:58;;;;;;;12.50;6.57;;;25.70;99.90;;;;;;6309647;28;20526;-67
2022/08/27 12:00:18;;;;;;;15.77;6.55;;;25.80;99.90;;;;;;6309728;28;20294;-67
2022/08/27 12:03:30;;;;;;;17.58;6.85;;;25.80;99.90;;;;;;6303650;28;20434;-67
2022/08/27 12:06:43;;;;;;;11.68;6.97;;;25.80;99.90;;;;;;6288738;28;20271;-67
2022/08/27 12:10:08;;;;;;;16.10;6.90;;;25.80;99.90;;;;;;6288669;28;20306;-67
2022/08/27 12:13:23;;;;;;;9.32;6.50;;;25.90;99.90;;;;;;6287774;28;20283;-67
2022/08/27 12:16:36;;;;;;;10.00;6.03;;;25.90;99.90;;;;;;6288283;28;20274;-67
2022/08/27 12:19:53;;;;;;;10.15;6.15;;;25.80;99.90;;;;;;6288241;28;20298;-67
2022/08/27 12:26:37;;;;;;;11.07;6.75;;;25.70;99.90;;;;;;6287385;28;20579;-67
2022/08/27 12:29:51;;;;;;;12.75;6.80;;;25.90;99.90;;;;;;6288236;28;20299;-67
2022/08/27 12:32:58;;;;;;;11.52;6.45;;;25.80;99.90;;;;;;6287934;28;20291;-67
2022/08/27 12:36:10;;;;;;;13.20;6.75;;;25.90;99.90;;;;;;6287340;28;20500;-66
2022/08/27 12:39:18;;;;;;;9.13;6.80;;;26.00;99.90;;;;;;6287138;28;20603;-67
2022/08/27 12:42:23;;;;;;;13.63;6.80;;;25.90;99.90;;;;;;6287504;28;20453;-66
2022/08/27 12:45:30;;;;;;;15.38;6.93;;;25.90;99.90;;;;;;6287344;28;20302;-66
2022/08/27 12:48:40;;;;;;;16.48;7.20;;;26.00;99.90;;;;;;6286958;28;20306;-66
2022/08/27 12:51:46;;;;;;;17.88;6.93;;;26.00;99.90;;;;;;6287946;28;20291;-66
2022/08/27 12:55:04;;;;;;;12.40;6.75;;;25.90;99.90;;;;;;6287369;28;20290;-66
2022/08/27 12:58:17;;;;;;;15.43;9.70;;;25.90;99.90;;;;;;6287320;28;20267;-68
2022/08/27 13:01:42;;;;;;;14.82;7.68;;;26.00;99.90;;;;;;6287491;28;20275;-67
2022/08/27 13:04:48;;;;;;;14.02;9.70;;;26.20;99.90;;;;;;6286831;28;20367;-67
2022/08/27 13:07:55;;;;;;;19.60;10.23;;;26.30;99.90;;;;;;6287327;28;20271;-67
2022/08/27 13:11:10;;;;;;;12.52;8.60;;;26.30;99.90;;;;;;6286373;28;20300;-66
2022/08/27 13:14:21;;;;;;;16.08;7.25;;;26.40;99.90;;;;;;6286158;28;20495;-66
2022/08/27 13:17:28;;;;;;;15.55;7.05;;;26.40;99.90;;;;;;6286541;28;20271;-67
2022/08/27 13:20:39;;;;;;;13.48;7.00;;;26.50;99.90;;;;;;6286616;28;20338;-67
2022/08/27 13:23:45;;;;;;;9.65;6.82;;;26.50;99.90;;;;;;6286653;28;20299;-67
2022/08/27 13:26:53;;;;;;;16.90;6.68;;;26.50;99.90;;;;;;6287263;28;20542;-67
2022/08/27 13:30:01;;;;;;;12.63;6.72;;;26.40;99.90;;;;;;6286085;28;20295;-67
2022/08/27 13:33:13;;;;;;;17.75;7.10;;;26.30;99.90;;;;;;6286828;28;20472;-66
2022/08/27 13:36:27;;;;;;;13.68;7.55;;;26.30;99.90;;;;;;6285916;28;20279;-66
2022/08/27 13:39:37;;;;;;;16.80;7.25;;;26.30;99.90;;;;;;6286244;28;20299;-65
2022/08/27 13:42:44;;;;;;;14.52;6.97;;;26.30;99.90;;;;;;6286849;28;20275;-67
2022/08/27 13:45:53;;;;;;;19.08;6.78;;;26.20;99.90;;;;;;6285402;28;20560;-67
2022/08/27 13:49:00;;;;;;;14.90;7.45;;;26.10;99.90;;;;;;6285795;28;20295;-66
2022/08/27 13:52:20;;;;;;;12.40;7.43;;;26.10;99.90;;;;;;6286345;28;20290;-69
2022/08/27 13:55:25;;;;;;;14.65;7.75;;;26.00;99.90;;;;;;6285613;28;20496;-67
2022/08/27 13:58:33;;;;;;;11.15;6.70;;;26.00;99.90;;;;;;6285836;28;20447;-67
2022/08/27 14:01:42;;;;;;;19.73;8.05;;;26.10;99.90;;;;;;6286401;28;20363;-66
2022/08/27 14:04:51;;;;;;;12.70;6.97;;;26.00;99.90;;;;;;6285047;28;20303;-67
2022/08/27 14:08:00;;;;;;;10.40;7.28;;;26.10;99.90;;;;;;6283467;28;20274;-68
2022/08/27 14:11:09;;;;;;;7.85;7.03;;;26.10;99.90;;;;;;6264783;28;20244;-66
2022/08/27 14:14:17;;;;;;;14.77;7.22;;;26.10;99.90;;;;;;6285103;28;20319;-67
2022/08/27 14:17:27;;;;;;;14.52;7.18;;;26.10;99.90;;;;;;6279340;28;20267;-68
2022/08/27 14:20:36;;;;;;;11.93;7.05;;;26.10;99.90;;;;;;6310162;28;20298;-67
2022/08/27 14:23:41;;;;;;;12.10;7.22;;;26.10;99.90;;;;;;6309363;28;20473;-68
2022/08/27 14:26:50;;;;;;;12.38;7.15;;;26.10;99.90;;;;;;6310053;28;20846;-68
2022/08/27 14:29:55;;;;;;;11.68;6.80;;;26.20;99.90;;;;;;6309763;28;20294;-66
2022/08/27 14:33:02;;;;;;;14.30;6.90;;;26.20;99.90;;;;;;6310436;28;20310;-67
2022/08/27 14:36:09;;;;;;;13.38;6.38;;;26.20;99.90;;;;;;6309676;28;20314;-67
2022/08/27 14:39:15;;;;;;;12.88;7.30;;;26.20;99.90;;;;;;6309847;28;20302;-68
2022/08/27 14:42:20;;;;;;;7.95;6.40;;;26.10;99.90;;;;;;6309966;28;20469;-68
2022/08/27 14:45:27;;;;;;;10.88;7.38;;;26.30;99.90;;;;;;6309906;28;20294;-68
2022/08/27 14:48:34;;;;;;;14.15;6.85;;;26.20;99.90;;;;;;6309983;28;20290;-68
2022/08/27 14:51:44;;;;;;;11.70;6.88;;;26.30;99.90;;;;;;6305952;28;20282;-67
2022/08/27 14:54:50;;;;;;;10.18;7.07;;;26.30;99.90;;;;;;6284215;28;20303;-67
2022/08/27 14:57:55;;;;;;;15.48;7.43;;;26.20;99.90;;;;;;6284517;28;20266;-66
2022/08/27 15:01:00;;;;;;;13.60;8.30;;;26.30;99.90;;;;;;6284736;28;20576;-68
2022/08/27 15:04:07;;;;;;;16.58;8.35;;;26.30;99.90;;;;;;6297470;28;20317;-68
2022/08/27 15:07:13;;;;;;;15.50;9.07;;;26.20;99.90;;;;;;6310414;28;20270;-68
2022/08/27 15:10:19;;;;;;;13.18;8.75;;;26.20;99.90;;;;;;6310001;28;20299;-68
2022/08/27 15:13:24;;;;;;;14.65;7.65;;;26.30;99.90;;;;;;6309149;28;20293;-68
2022/08/27 15:16:33;;;;;;;12.60;7.65;;;26.30;99.90;;;;;;6309687;28;20346;-67
2022/08/27 15:19:38;;;;;;;10.50;7.45;;;26.40;99.90;;;;;;6309778;28;20598;-67
2022/08/27 15:22:46;;;;;;;15.20;7.40;;;26.30;99.90;;;;;;6309780;28;20274;-68
2022/08/27 15:25:52;;;;;;;13.63;7.80;;;26.30;99.90;;;;;;6309499;28;20321;-67
2022/08/27 15:28:58;;;;;;;12.02;7.65;;;26.30;99.90;;;;;;6309432;28;20298;-66
2022/08/27 15:32:18;;;;;;;12.85;7.00;;;26.20;99.90;;;;;;6309860;28;20270;-67
2022/08/27 15:35:27;;;;;;;17.42;7.63;;;26.20;99.90;;;;;;6311041;28;20302;-68
2022/08/27 15:38:34;;;;;;;12.90;7.70;;;26.10;99.90;;;;;;6314407;28;20289;-66
2022/08/27 15:41:42;;;;;;;11.65;7.68;;;26.20;99.90;;;;;;6314778;28;20270;-67
2022/08/27 15:45:10;;;;;;;12.68;7.82;;;26.20;99.90;;;;;;6314034;28;20299;-67
2022/08/27 15:48:15;;;;;;;14.50;7.50;;;26.10;99.90;;;;;;6313707;28;20314;-67
2022/08/27 15:51:27;;;;;;;12.35;7.78;;;26.10;99.90;;;;;;6314202;28;20290;-68
2022/08/27 15:54:34;;;;;;;12.27;7.97;;;26.10;99.90;;;;;;6313551;28;20307;-67
2022/08/27 15:57:39;;;;;;;9.90;8.02;;;26.10;99.90;;;;;;6314384;28;20270;-67
2022/08/27 16:00:47;;;;;;;13.45;8.00;;;26.10;99.90;;;;;;6313661;28;20294;-69
2022/08/27 16:04:03;;;;;;;13.90;9.73;;;26.10;99.90;;;;;;6313211;28;20319;-66
2022/08/27 16:07:11;;;;;;;23.15;9.55;;;26.10;99.90;;;;;;6313650;28;20267;-68
2022/08/27 16:10:20;;;;;;;15.65;8.43;;;26.10;99.90;;;;;;6313445;28;20294;-67
2022/08/27 16:13:26;;;;;;;16.83;8.85;;;26.00;99.90;;;;;;6313611;28;20449;-67
2022/08/27 16:16:32;;;;;;;13.18;8.20;;;26.00;99.90;;;;;;6313742;28;20290;-68
2022/08/27 16:19:38;;;;;;;15.25;8.00;;;26.00;99.90;;;;;;6312520;28;20294;-67
2022/08/27 16:22:45;;;;;;;16.85;8.18;;;26.00;99.90;;;;;;6313584;28;20266;-66